sensor_id;sensor_type;location;lat;lon;timestamp;P1;durP1;ratioP1;P2;durP2;ratioP2
22922;SDS011;11627;51.322;22.816;2022-07-06T00:01:51;13.98;;;6.40;;
22922;SDS011;11627;51.322;22.816;2022-07-06T00:04:18;7.53;;;6.47;;
22922;SDS011;11627;51.322;22.816;2022-07-06T00:06:45;6.97;;;5.70;;
22922;SDS011;11627;51.322;22.816;2022-07-06T00:09:11;6.53;;;5.85;;
22922;SDS011;11627;51.322;22.816;2022-07-06T00:11:38;5.78;;;5.28;;
22922;SDS011;11627;51.322;22.816;2022-07-06T00:14:05;6.20;;;5.20;;
22922;SDS011;11627;51.322;22.816;2022-07-06T00:16:31;12.18;;;6.15;;
22922;SDS011;11627;51.322;22.816;2022-07-06T00:18:58;10.23;;;6.28;;
22922;SDS011;11627;51.322;22.816;2022-07-06T00:21:26;6.18;;;5.18;;
22922;SDS011;11627;51.322;22.816;2022-07-06T00:23:53;7.93;;;5.90;;
22922;SDS011;11627;51.322;22.816;2022-07-06T00:26:19;7.03;;;5.57;;
22922;SDS011;11627;51.322;22.816;2022-07-06T00:28:45;5.97;;;5.40;;
22922;SDS011;11627;51.322;22.816;2022-07-06T00:31:12;8.65;;;5.72;;
22922;SDS011;11627;51.322;22.816;2022-07-06T00:33:38;4.93;;;4.53;;
22922;SDS011;11627;51.322;22.816;2022-07-06T00:36:04;6.15;;;5.55;;
22922;SDS011;11627;51.322;22.816;2022-07-06T00:38:32;5.22;;;4.70;;
22922;SDS011;11627;51.322;22.816;2022-07-06T00:40:59;6.78;;;5.38;;
22922;SDS011;11627;51.322;22.816;2022-07-06T00:43:24;7.28;;;4.90;;
22922;SDS011;11627;51.322;22.816;2022-07-06T00:45:50;8.18;;;4.82;;
22922;SDS011;11627;51.322;22.816;2022-07-06T00:48:17;9.27;;;5.38;;
22922;SDS011;11627;51.322;22.816;2022-07-06T00:50:44;7.95;;;6.82;;
22922;SDS011;11627;51.322;22.816;2022-07-06T00:53:10;9.07;;;7.13;;
22922;SDS011;11627;51.322;22.816;2022-07-06T00:55:45;9.88;;;7.60;;
22922;SDS011;11627;51.322;22.816;2022-07-06T00:58:17;9.90;;;7.65;;
22922;SDS011;11627;51.322;22.816;2022-07-06T01:00:43;9.23;;;7.10;;
22922;SDS011;11627;51.322;22.816;2022-07-06T01:03:09;7.28;;;6.57;;
22922;SDS011;11627;51.322;22.816;2022-07-06T01:05:35;7.13;;;6.43;;
22922;SDS011;11627;51.322;22.816;2022-07-06T01:08:03;7.40;;;6.03;;
22922;SDS011;11627;51.322;22.816;2022-07-06T01:10:30;8.25;;;6.55;;
22922;SDS011;11627;51.322;22.816;2022-07-06T01:12:57;7.05;;;6.03;;
22922;SDS011;11627;51.322;22.816;2022-07-06T01:15:25;6.32;;;5.25;;
22922;SDS011;11627;51.322;22.816;2022-07-06T01:17:52;6.43;;;5.25;;
22922;SDS011;11627;51.322;22.816;2022-07-06T01:20:20;6.72;;;5.43;;
22922;SDS011;11627;51.322;22.816;2022-07-06T01:22:48;6.15;;;4.68;;
22922;SDS011;11627;51.322;22.816;2022-07-06T01:25:19;5.53;;;5.03;;
22922;SDS011;11627;51.322;22.816;2022-07-06T01:27:46;8.40;;;4.72;;
22922;SDS011;11627;51.322;22.816;2022-07-06T01:30:16;5.25;;;4.75;;
22922;SDS011;11627;51.322;22.816;2022-07-06T01:32:44;5.05;;;4.32;;
22922;SDS011;11627;51.322;22.816;2022-07-06T01:35:12;6.28;;;3.88;;
22922;SDS011;11627;51.322;22.816;2022-07-06T01:37:40;4.50;;;3.25;;
22922;SDS011;11627;51.322;22.816;2022-07-06T01:40:07;4.30;;;3.70;;
22922;SDS011;11627;51.322;22.816;2022-07-06T01:42:38;3.70;;;3.40;;
22922;SDS011;11627;51.322;22.816;2022-07-06T01:45:07;4.15;;;3.53;;
22922;SDS011;11627;51.322;22.816;2022-07-06T01:47:34;7.90;;;3.80;;
22922;SDS011;11627;51.322;22.816;2022-07-06T01:50:04;5.55;;;3.60;;
22922;SDS011;11627;51.322;22.816;2022-07-06T01:52:32;4.65;;;3.22;;
22922;SDS011;11627;51.322;22.816;2022-07-06T01:54:58;3.80;;;3.50;;
22922;SDS011;11627;51.322;22.816;2022-07-06T01:57:24;3.33;;;3.03;;
22922;SDS011;11627;51.322;22.816;2022-07-06T01:59:51;4.07;;;3.38;;
22922;SDS011;11627;51.322;22.816;2022-07-06T02:02:18;3.90;;;3.60;;
22922;SDS011;11627;51.322;22.816;2022-07-06T02:04:44;3.72;;;3.40;;
22922;SDS011;11627;51.322;22.816;2022-07-06T02:07:10;3.50;;;3.20;;
22922;SDS011;11627;51.322;22.816;2022-07-06T02:09:37;3.75;;;3.20;;
22922;SDS011;11627;51.322;22.816;2022-07-06T02:12:05;3.55;;;2.55;;
22922;SDS011;11627;51.322;22.816;2022-07-06T02:14:32;5.22;;;2.67;;
22922;SDS011;11627;51.322;22.816;2022-07-06T02:16:58;3.45;;;3.03;;
22922;SDS011;11627;51.322;22.816;2022-07-06T02:19:24;3.13;;;2.83;;
22922;SDS011;11627;51.322;22.816;2022-07-06T02:21:50;2.40;;;2.20;;
22922;SDS011;11627;51.322;22.816;2022-07-06T02:24:17;5.13;;;2.85;;
22922;SDS011;11627;51.322;22.816;2022-07-06T02:26:45;2.70;;;2.50;;
22922;SDS011;11627;51.322;22.816;2022-07-06T02:29:11;2.20;;;2.08;;
22922;SDS011;11627;51.322;22.816;2022-07-06T02:31:39;2.20;;;2.00;;
22922;SDS011;11627;51.322;22.816;2022-07-06T02:34:05;2.42;;;2.22;;
22922;SDS011;11627;51.322;22.816;2022-07-06T02:36:33;1.90;;;1.80;;
22922;SDS011;11627;51.322;22.816;2022-07-06T02:38:59;1.50;;;1.40;;
22922;SDS011;11627;51.322;22.816;2022-07-06T02:41:25;1.67;;;1.20;;
22922;SDS011;11627;51.322;22.816;2022-07-06T02:43:51;1.50;;;1.40;;
22922;SDS011;11627;51.322;22.816;2022-07-06T02:46:18;1.67;;;1.30;;
22922;SDS011;11627;51.322;22.816;2022-07-06T02:48:44;1.45;;;1.35;;
22922;SDS011;11627;51.322;22.816;2022-07-06T02:51:10;1.05;;;1.05;;
22922;SDS011;11627;51.322;22.816;2022-07-06T02:53:36;1.40;;;1.30;;
22922;SDS011;11627;51.322;22.816;2022-07-06T02:56:03;1.60;;;1.23;;
22922;SDS011;11627;51.322;22.816;2022-07-06T02:58:30;1.10;;;1.10;;
22922;SDS011;11627;51.322;22.816;2022-07-06T03:00:56;1.10;;;1.02;;
22922;SDS011;11627;51.322;22.816;2022-07-06T03:03:22;1.58;;;0.98;;
22922;SDS011;11627;51.322;22.816;2022-07-06T03:05:49;2.45;;;0.90;;
22922;SDS011;11627;51.322;22.816;2022-07-06T03:08:15;2.40;;;0.75;;
22922;SDS011;11627;51.322;22.816;2022-07-06T03:10:41;1.27;;;0.68;;
22922;SDS011;11627;51.322;22.816;2022-07-06T03:13:07;0.50;;;0.50;;
22922;SDS011;11627;51.322;22.816;2022-07-06T03:15:33;1.50;;;0.52;;
22922;SDS011;11627;51.322;22.816;2022-07-06T03:17:59;0.55;;;0.40;;
22922;SDS011;11627;51.322;22.816;2022-07-06T03:20:26;0.30;;;0.30;;
22922;SDS011;11627;51.322;22.816;2022-07-06T03:22:52;0.40;;;0.40;;
22922;SDS011;11627;51.322;22.816;2022-07-06T03:25:17;1.23;;;0.50;;
22922;SDS011;11627;51.322;22.816;2022-07-06T03:27:45;0.80;;;0.35;;
22922;SDS011;11627;51.322;22.816;2022-07-06T03:30:10;0.50;;;0.50;;
22922;SDS011;11627;51.322;22.816;2022-07-06T03:32:37;0.40;;;0.35;;
22922;SDS011;11627;51.322;22.816;2022-07-06T03:35:04;1.75;;;0.50;;
22922;SDS011;11627;51.322;22.816;2022-07-06T03:37:31;2.05;;;0.40;;
22922;SDS011;11627;51.322;22.816;2022-07-06T03:39:57;0.45;;;0.40;;
22922;SDS011;11627;51.322;22.816;2022-07-06T03:42:24;0.70;;;0.50;;
22922;SDS011;11627;51.322;22.816;2022-07-06T03:44:50;0.40;;;0.40;;
22922;SDS011;11627;51.322;22.816;2022-07-06T03:47:17;0.75;;;0.32;;
22922;SDS011;11627;51.322;22.816;2022-07-06T03:49:43;0.70;;;0.30;;
22922;SDS011;11627;51.322;22.816;2022-07-06T03:52:09;0.60;;;0.60;;
22922;SDS011;11627;51.322;22.816;2022-07-06T03:54:35;0.50;;;0.50;;
22922;SDS011;11627;51.322;22.816;2022-07-06T03:57:03;0.82;;;0.50;;
22922;SDS011;11627;51.322;22.816;2022-07-06T03:59:30;1.95;;;0.57;;
22922;SDS011;11627;51.322;22.816;2022-07-06T04:01:55;2.30;;;0.60;;
22922;SDS011;11627;51.322;22.816;2022-07-06T04:04:23;0.55;;;0.50;;
22922;SDS011;11627;51.322;22.816;2022-07-06T04:06:50;2.80;;;0.32;;
22922;SDS011;11627;51.322;22.816;2022-07-06T04:09:15;1.20;;;0.60;;
22922;SDS011;11627;51.322;22.816;2022-07-06T04:11:41;0.40;;;0.40;;
22922;SDS011;11627;51.322;22.816;2022-07-06T04:14:07;0.60;;;0.40;;
22922;SDS011;11627;51.322;22.816;2022-07-06T04:16:33;0.65;;;0.60;;
22922;SDS011;11627;51.322;22.816;2022-07-06T04:18:59;0.70;;;0.60;;
22922;SDS011;11627;51.322;22.816;2022-07-06T04:21:25;1.48;;;0.60;;
22922;SDS011;11627;51.322;22.816;2022-07-06T04:23:52;0.93;;;0.70;;
22922;SDS011;11627;51.322;22.816;2022-07-06T04:26:19;1.40;;;0.65;;
22922;SDS011;11627;51.322;22.816;2022-07-06T04:28:44;2.35;;;0.63;;
22922;SDS011;11627;51.322;22.816;2022-07-06T04:31:11;0.70;;;0.70;;
22922;SDS011;11627;51.322;22.816;2022-07-06T04:33:41;1.02;;;0.85;;
22922;SDS011;11627;51.322;22.816;2022-07-06T04:36:09;2.58;;;0.93;;
22922;SDS011;11627;51.322;22.816;2022-07-06T04:38:35;0.98;;;0.98;;
22922;SDS011;11627;51.322;22.816;2022-07-06T04:41:02;0.95;;;0.85;;
22922;SDS011;11627;51.322;22.816;2022-07-06T04:43:29;1.70;;;0.80;;
22922;SDS011;11627;51.322;22.816;2022-07-06T04:45:55;0.88;;;0.88;;
22922;SDS011;11627;51.322;22.816;2022-07-06T04:48:22;0.80;;;0.80;;
22922;SDS011;11627;51.322;22.816;2022-07-06T04:50:47;0.90;;;0.90;;
22922;SDS011;11627;51.322;22.816;2022-07-06T04:53:14;1.52;;;1.05;;
22922;SDS011;11627;51.322;22.816;2022-07-06T04:55:41;1.45;;;1.15;;
22922;SDS011;11627;51.322;22.816;2022-07-06T04:58:07;1.35;;;1.10;;
22922;SDS011;11627;51.322;22.816;2022-07-06T05:00:32;1.40;;;1.30;;
22922;SDS011;11627;51.322;22.816;2022-07-06T05:02:59;3.63;;;1.10;;
22922;SDS011;11627;51.322;22.816;2022-07-06T05:05:25;6.20;;;1.40;;
22922;SDS011;11627;51.322;22.816;2022-07-06T05:07:52;1.85;;;1.02;;
22922;SDS011;11627;51.322;22.816;2022-07-06T05:10:18;1.17;;;1.17;;
22922;SDS011;11627;51.322;22.816;2022-07-06T05:12:44;1.20;;;1.10;;
22922;SDS011;11627;51.322;22.816;2022-07-06T05:15:10;1.23;;;1.13;;
22922;SDS011;11627;51.322;22.816;2022-07-06T05:17:35;1.50;;;1.40;;
22922;SDS011;11627;51.322;22.816;2022-07-06T05:20:02;2.45;;;1.30;;
22922;SDS011;11627;51.322;22.816;2022-07-06T05:22:31;1.58;;;1.48;;
22922;SDS011;11627;51.322;22.816;2022-07-06T05:24:57;3.15;;;1.45;;
22922;SDS011;11627;51.322;22.816;2022-07-06T05:27:23;2.25;;;1.27;;
22922;SDS011;11627;51.322;22.816;2022-07-06T05:29:49;1.70;;;1.60;;
22922;SDS011;11627;51.322;22.816;2022-07-06T05:32:17;1.60;;;1.50;;
22922;SDS011;11627;51.322;22.816;2022-07-06T05:34:43;2.30;;;1.52;;
22922;SDS011;11627;51.322;22.816;2022-07-06T05:37:09;2.03;;;1.42;;
22922;SDS011;11627;51.322;22.816;2022-07-06T05:39:35;1.60;;;1.50;;
22922;SDS011;11627;51.322;22.816;2022-07-06T05:42:04;1.70;;;1.60;;
22922;SDS011;11627;51.322;22.816;2022-07-06T05:44:30;1.85;;;1.58;;
22922;SDS011;11627;51.322;22.816;2022-07-06T05:46:56;1.65;;;1.55;;
22922;SDS011;11627;51.322;22.816;2022-07-06T05:49:42;2.15;;;1.40;;
22922;SDS011;11627;51.322;22.816;2022-07-06T05:52:26;2.25;;;1.55;;
22922;SDS011;11627;51.322;22.816;2022-07-06T05:54:55;1.42;;;1.33;;
22922;SDS011;11627;51.322;22.816;2022-07-06T05:57:21;3.13;;;1.60;;
22922;SDS011;11627;51.322;22.816;2022-07-06T05:59:47;1.55;;;1.40;;
22922;SDS011;11627;51.322;22.816;2022-07-06T06:02:14;1.65;;;1.55;;
22922;SDS011;11627;51.322;22.816;2022-07-06T06:04:42;1.90;;;1.70;;
22922;SDS011;11627;51.322;22.816;2022-07-06T06:07:08;2.63;;;2.17;;
22922;SDS011;11627;51.322;22.816;2022-07-06T06:09:36;1.85;;;1.73;;
22922;SDS011;11627;51.322;22.816;2022-07-06T06:12:01;2.03;;;1.92;;
22922;SDS011;11627;51.322;22.816;2022-07-06T06:14:28;2.38;;;1.80;;
22922;SDS011;11627;51.322;22.816;2022-07-06T06:16:54;2.78;;;1.70;;
22922;SDS011;11627;51.322;22.816;2022-07-06T06:19:21;1.75;;;1.65;;
22922;SDS011;11627;51.322;22.816;2022-07-06T06:21:46;1.70;;;1.40;;
22922;SDS011;11627;51.322;22.816;2022-07-06T06:24:13;3.10;;;1.63;;
22922;SDS011;11627;51.322;22.816;2022-07-06T06:26:38;2.15;;;1.95;;
22922;SDS011;11627;51.322;22.816;2022-07-06T06:29:04;2.30;;;1.77;;
22922;SDS011;11627;51.322;22.816;2022-07-06T06:31:30;2.80;;;1.85;;
22922;SDS011;11627;51.322;22.816;2022-07-06T06:33:55;3.10;;;1.85;;
22922;SDS011;11627;51.322;22.816;2022-07-06T06:36:21;1.92;;;1.83;;
22922;SDS011;11627;51.322;22.816;2022-07-06T06:38:47;1.73;;;1.63;;
22922;SDS011;11627;51.322;22.816;2022-07-06T06:41:13;2.65;;;1.95;;
22922;SDS011;11627;51.322;22.816;2022-07-06T06:43:40;2.10;;;2.00;;
22922;SDS011;11627;51.322;22.816;2022-07-06T06:46:07;1.73;;;1.60;;
22922;SDS011;11627;51.322;22.816;2022-07-06T06:48:32;5.20;;;2.00;;
22922;SDS011;11627;51.322;22.816;2022-07-06T06:50:58;1.70;;;1.60;;
22922;SDS011;11627;51.322;22.816;2022-07-06T06:53:24;3.75;;;1.92;;
22922;SDS011;11627;51.322;22.816;2022-07-06T06:55:51;1.80;;;1.70;;
22922;SDS011;11627;51.322;22.816;2022-07-06T06:58:18;2.30;;;2.10;;
22922;SDS011;11627;51.322;22.816;2022-07-06T07:00:43;3.03;;;2.20;;
22922;SDS011;11627;51.322;22.816;2022-07-06T07:03:09;2.40;;;2.20;;
22922;SDS011;11627;51.322;22.816;2022-07-06T07:05:35;3.20;;;2.10;;
22922;SDS011;11627;51.322;22.816;2022-07-06T07:08:02;2.65;;;2.45;;
22922;SDS011;11627;51.322;22.816;2022-07-06T07:10:28;3.50;;;2.90;;
22922;SDS011;11627;51.322;22.816;2022-07-06T07:12:56;3.28;;;2.90;;
22922;SDS011;11627;51.322;22.816;2022-07-06T07:15:21;4.00;;;2.38;;
22922;SDS011;11627;51.322;22.816;2022-07-06T07:17:47;3.22;;;2.50;;
22922;SDS011;11627;51.322;22.816;2022-07-06T07:20:12;4.47;;;2.47;;
22922;SDS011;11627;51.322;22.816;2022-07-06T07:22:40;2.55;;;2.35;;
22922;SDS011;11627;51.322;22.816;2022-07-06T07:25:06;2.20;;;2.00;;
22922;SDS011;11627;51.322;22.816;2022-07-06T07:27:32;2.42;;;2.22;;
22922;SDS011;11627;51.322;22.816;2022-07-06T07:29:59;2.05;;;1.95;;
22922;SDS011;11627;51.322;22.816;2022-07-06T07:32:25;2.33;;;1.95;;
22922;SDS011;11627;51.322;22.816;2022-07-06T07:34:52;3.40;;;2.20;;
22922;SDS011;11627;51.322;22.816;2022-07-06T07:37:18;2.45;;;2.17;;
22922;SDS011;11627;51.322;22.816;2022-07-06T07:39:44;2.20;;;2.10;;
22922;SDS011;11627;51.322;22.816;2022-07-06T07:42:10;3.38;;;2.20;;
22922;SDS011;11627;51.322;22.816;2022-07-06T07:44:36;2.88;;;1.70;;
22922;SDS011;11627;51.322;22.816;2022-07-06T07:47:03;2.03;;;1.70;;
22922;SDS011;11627;51.322;22.816;2022-07-06T07:49:30;1.70;;;1.60;;
22922;SDS011;11627;51.322;22.816;2022-07-06T07:51:58;2.50;;;1.80;;
22922;SDS011;11627;51.322;22.816;2022-07-06T07:54:24;2.85;;;1.50;;
22922;SDS011;11627;51.322;22.816;2022-07-06T07:56:51;1.80;;;1.70;;
22922;SDS011;11627;51.322;22.816;2022-07-06T07:59:16;3.22;;;2.10;;
22922;SDS011;11627;51.322;22.816;2022-07-06T08:01:43;1.92;;;1.67;;
22922;SDS011;11627;51.322;22.816;2022-07-06T08:04:09;1.95;;;1.67;;
22922;SDS011;11627;51.322;22.816;2022-07-06T08:06:35;1.50;;;1.40;;
22922;SDS011;11627;51.322;22.816;2022-07-06T08:09:02;1.70;;;1.40;;
22922;SDS011;11627;51.322;22.816;2022-07-06T08:11:30;1.98;;;1.60;;
22922;SDS011;11627;51.322;22.816;2022-07-06T08:13:57;1.45;;;1.35;;
22922;SDS011;11627;51.322;22.816;2022-07-06T08:16:29;1.10;;;1.10;;
22922;SDS011;11627;51.322;22.816;2022-07-06T08:18:55;2.25;;;1.63;;
22922;SDS011;11627;51.322;22.816;2022-07-06T08:21:21;1.85;;;1.60;;
22922;SDS011;11627;51.322;22.816;2022-07-06T08:23:48;0.90;;;0.90;;
22922;SDS011;11627;51.322;22.816;2022-07-06T08:26:14;2.22;;;1.10;;
22922;SDS011;11627;51.322;22.816;2022-07-06T08:28:40;3.10;;;1.20;;
22922;SDS011;11627;51.322;22.816;2022-07-06T08:31:15;1.32;;;1.22;;
22922;SDS011;11627;51.322;22.816;2022-07-06T08:33:42;1.40;;;1.10;;
22922;SDS011;11627;51.322;22.816;2022-07-06T08:36:08;1.73;;;1.30;;
22922;SDS011;11627;51.322;22.816;2022-07-06T08:38:40;1.50;;;1.40;;
22922;SDS011;11627;51.322;22.816;2022-07-06T08:41:07;1.00;;;1.00;;
22922;SDS011;11627;51.322;22.816;2022-07-06T08:43:39;1.50;;;1.00;;
22922;SDS011;11627;51.322;22.816;2022-07-06T08:46:05;2.28;;;1.00;;
22922;SDS011;11627;51.322;22.816;2022-07-06T08:48:37;1.13;;;1.10;;
22922;SDS011;11627;51.322;22.816;2022-07-06T08:51:05;2.45;;;0.90;;
22922;SDS011;11627;51.322;22.816;2022-07-06T08:53:31;0.90;;;0.90;;
22922;SDS011;11627;51.322;22.816;2022-07-06T08:56:00;1.75;;;1.00;;
22922;SDS011;11627;51.322;22.816;2022-07-06T08:58:26;1.23;;;1.15;;
22922;SDS011;11627;51.322;22.816;2022-07-06T09:00:54;0.98;;;0.98;;
22922;SDS011;11627;51.322;22.816;2022-07-06T09:03:20;1.48;;;1.30;;
22922;SDS011;11627;51.322;22.816;2022-07-06T09:05:47;0.93;;;0.80;;
22922;SDS011;11627;51.322;22.816;2022-07-06T09:08:14;0.82;;;0.80;;
22922;SDS011;11627;51.322;22.816;2022-07-06T09:10:41;0.82;;;0.70;;
22922;SDS011;11627;51.322;22.816;2022-07-06T09:13:08;1.13;;;0.90;;
22922;SDS011;11627;51.322;22.816;2022-07-06T09:15:35;2.75;;;1.60;;
22922;SDS011;11627;51.322;22.816;2022-07-06T09:18:04;1.55;;;0.77;;
22922;SDS011;11627;51.322;22.816;2022-07-06T09:20:33;0.95;;;0.80;;
22922;SDS011;11627;51.322;22.816;2022-07-06T09:23:04;1.75;;;1.02;;
22922;SDS011;11627;51.322;22.816;2022-07-06T09:25:32;2.40;;;0.80;;
22922;SDS011;11627;51.322;22.816;2022-07-06T09:27:59;0.95;;;0.95;;
22922;SDS011;11627;51.322;22.816;2022-07-06T09:30:27;0.80;;;0.80;;
22922;SDS011;11627;51.322;22.816;2022-07-06T09:32:56;5.10;;;1.20;;
22922;SDS011;11627;51.322;22.816;2022-07-06T09:38:09;2.42;;;1.10;;
22922;SDS011;11627;51.322;22.816;2022-07-06T09:40:38;1.95;;;0.90;;
22922;SDS011;11627;51.322;22.816;2022-07-06T09:45:52;1.20;;;1.10;;
22922;SDS011;11627;51.322;22.816;2022-07-06T09:48:21;1.35;;;1.00;;
22922;SDS011;11627;51.322;22.816;2022-07-06T09:50:55;1.90;;;0.85;;
22922;SDS011;11627;51.322;22.816;2022-07-06T09:53:24;3.42;;;1.27;;
22922;SDS011;11627;51.322;22.816;2022-07-06T09:55:55;2.13;;;1.00;;
22922;SDS011;11627;51.322;22.816;2022-07-06T09:58:28;1.75;;;1.15;;
22922;SDS011;11627;51.322;22.816;2022-07-06T10:00:53;1.95;;;1.10;;
22922;SDS011;11627;51.322;22.816;2022-07-06T10:03:21;1.13;;;0.90;;
22922;SDS011;11627;51.322;22.816;2022-07-06T10:05:47;1.50;;;1.40;;
22922;SDS011;11627;51.322;22.816;2022-07-06T10:08:15;1.33;;;1.23;;
22922;SDS011;11627;51.322;22.816;2022-07-06T10:10:43;1.63;;;1.50;;
22922;SDS011;11627;51.322;22.816;2022-07-06T10:13:09;4.78;;;1.60;;
22922;SDS011;11627;51.322;22.816;2022-07-06T10:15:37;2.45;;;1.85;;
22922;SDS011;11627;51.322;22.816;2022-07-06T10:18:08;1.88;;;1.77;;
22922;SDS011;11627;51.322;22.816;2022-07-06T10:20:37;2.05;;;1.40;;
22922;SDS011;11627;51.322;22.816;2022-07-06T10:23:07;2.05;;;1.45;;
22922;SDS011;11627;51.322;22.816;2022-07-06T10:25:34;1.35;;;1.25;;
22922;SDS011;11627;51.322;22.816;2022-07-06T10:28:00;1.30;;;1.20;;
22922;SDS011;11627;51.322;22.816;2022-07-06T10:30:27;1.40;;;1.30;;
22922;SDS011;11627;51.322;22.816;2022-07-06T10:32:54;2.40;;;1.08;;
22922;SDS011;11627;51.322;22.816;2022-07-06T10:35:23;1.25;;;1.02;;
22922;SDS011;11627;51.322;22.816;2022-07-06T10:40:32;1.73;;;0.93;;
22922;SDS011;11627;51.322;22.816;2022-07-06T10:43:22;1.23;;;1.00;;
22922;SDS011;11627;51.322;22.816;2022-07-06T10:51:01;2.00;;;1.30;;
22922;SDS011;11627;51.322;22.816;2022-07-06T10:53:33;1.80;;;1.20;;
22922;SDS011;11627;51.322;22.816;2022-07-06T10:56:05;1.25;;;1.10;;
22922;SDS011;11627;51.322;22.816;2022-07-06T10:58:49;1.27;;;1.15;;
22922;SDS011;11627;51.322;22.816;2022-07-06T11:01:16;2.05;;;1.30;;
22922;SDS011;11627;51.322;22.816;2022-07-06T11:08:58;3.10;;;1.30;;
22922;SDS011;11627;51.322;22.816;2022-07-06T11:11:42;1.73;;;1.10;;
22922;SDS011;11627;51.322;22.816;2022-07-06T11:14:12;1.48;;;1.20;;
22922;SDS011;11627;51.322;22.816;2022-07-06T11:19:22;2.95;;;1.00;;
22922;SDS011;11627;51.322;22.816;2022-07-06T11:21:51;2.05;;;1.27;;
22922;SDS011;11627;51.322;22.816;2022-07-06T11:24:33;2.55;;;1.35;;
22922;SDS011;11627;51.322;22.816;2022-07-06T11:27:03;2.20;;;1.10;;
22922;SDS011;11627;51.322;22.816;2022-07-06T11:29:31;4.35;;;1.20;;
22922;SDS011;11627;51.322;22.816;2022-07-06T11:31:59;2.55;;;1.75;;
22922;SDS011;11627;51.322;22.816;2022-07-06T11:34:33;1.77;;;1.02;;
22922;SDS011;11627;51.322;22.816;2022-07-06T11:37:01;1.42;;;1.08;;
22922;SDS011;11627;51.322;22.816;2022-07-06T11:39:30;1.50;;;1.20;;
22922;SDS011;11627;51.322;22.816;2022-07-06T11:41:58;1.15;;;1.00;;
22922;SDS011;11627;51.322;22.816;2022-07-06T11:44:29;0.93;;;0.93;;
22922;SDS011;11627;51.322;22.816;2022-07-06T11:46:56;1.48;;;1.38;;
22922;SDS011;11627;51.322;22.816;2022-07-06T11:49:24;1.27;;;1.17;;
22922;SDS011;11627;51.322;22.816;2022-07-06T11:51:50;2.88;;;1.42;;
22922;SDS011;11627;51.322;22.816;2022-07-06T11:54:17;1.20;;;1.20;;
22922;SDS011;11627;51.322;22.816;2022-07-06T11:56:46;3.05;;;1.48;;
22922;SDS011;11627;51.322;22.816;2022-07-06T11:59:25;4.18;;;1.33;;
22922;SDS011;11627;51.322;22.816;2022-07-06T12:02:07;1.77;;;1.30;;
22922;SDS011;11627;51.322;22.816;2022-07-06T12:04:41;1.17;;;1.13;;
22922;SDS011;11627;51.322;22.816;2022-07-06T12:07:09;1.73;;;1.40;;
22922;SDS011;11627;51.322;22.816;2022-07-06T12:09:42;1.70;;;1.60;;
22922;SDS011;11627;51.322;22.816;2022-07-06T12:12:13;2.47;;;1.10;;
22922;SDS011;11627;51.322;22.816;2022-07-06T12:14:39;1.63;;;1.52;;
22922;SDS011;11627;51.322;22.816;2022-07-06T12:19:34;1.92;;;1.20;;
22922;SDS011;11627;51.322;22.816;2022-07-06T12:22:02;1.63;;;1.30;;
22922;SDS011;11627;51.322;22.816;2022-07-06T12:24:29;3.60;;;1.30;;
22922;SDS011;11627;51.322;22.816;2022-07-06T12:26:57;1.40;;;1.30;;
22922;SDS011;11627;51.322;22.816;2022-07-06T12:29:44;1.50;;;1.40;;
22922;SDS011;11627;51.322;22.816;2022-07-06T12:32:15;1.33;;;1.23;;
22922;SDS011;11627;51.322;22.816;2022-07-06T12:34:43;1.33;;;1.15;;
22922;SDS011;11627;51.322;22.816;2022-07-06T12:37:10;1.23;;;1.13;;
22922;SDS011;11627;51.322;22.816;2022-07-06T12:39:43;1.63;;;1.20;;
22922;SDS011;11627;51.322;22.816;2022-07-06T12:42:15;1.38;;;1.10;;
22922;SDS011;11627;51.322;22.816;2022-07-06T12:44:52;1.33;;;1.00;;
22922;SDS011;11627;51.322;22.816;2022-07-06T12:47:19;1.15;;;0.90;;
22922;SDS011;11627;51.322;22.816;2022-07-06T12:49:48;5.80;;;3.58;;
22922;SDS011;11627;51.322;22.816;2022-07-06T12:52:37;3.90;;;2.50;;
22922;SDS011;11627;51.322;22.816;2022-07-06T12:55:04;7.78;;;4.20;;
22922;SDS011;11627;51.322;22.816;2022-07-06T13:00:28;18.10;;;7.32;;
22922;SDS011;11627;51.322;22.816;2022-07-06T13:02:55;9.75;;;4.65;;
22922;SDS011;11627;51.322;22.816;2022-07-06T13:05:22;5.38;;;3.35;;
22922;SDS011;11627;51.322;22.816;2022-07-06T13:07:53;2.55;;;2.08;;
22922;SDS011;11627;51.322;22.816;2022-07-06T13:10:21;9.45;;;5.50;;
22922;SDS011;11627;51.322;22.816;2022-07-06T13:12:49;3.10;;;2.00;;
22922;SDS011;11627;51.322;22.816;2022-07-06T13:15:15;5.60;;;2.83;;
22922;SDS011;11627;51.322;22.816;2022-07-06T13:17:41;16.05;;;7.82;;
22922;SDS011;11627;51.322;22.816;2022-07-06T13:20:09;13.85;;;4.65;;
22922;SDS011;11627;51.322;22.816;2022-07-06T13:22:37;7.82;;;3.25;;
22922;SDS011;11627;51.322;22.816;2022-07-06T13:25:05;4.22;;;2.33;;
22922;SDS011;11627;51.322;22.816;2022-07-06T13:27:31;5.00;;;2.75;;
22922;SDS011;11627;51.322;22.816;2022-07-06T13:29:57;6.00;;;1.60;;
22922;SDS011;11627;51.322;22.816;2022-07-06T13:32:23;3.17;;;1.13;;
22922;SDS011;11627;51.322;22.816;2022-07-06T13:34:50;1.58;;;1.13;;
22922;SDS011;11627;51.322;22.816;2022-07-06T13:37:16;0.80;;;0.80;;
22922;SDS011;11627;51.322;22.816;2022-07-06T13:39:45;1.20;;;0.98;;
22922;SDS011;11627;51.322;22.816;2022-07-06T13:42:11;1.27;;;0.90;;
22922;SDS011;11627;51.322;22.816;2022-07-06T13:44:37;1.42;;;0.80;;
22922;SDS011;11627;51.322;22.816;2022-07-06T13:47:04;3.00;;;1.10;;
22922;SDS011;11627;51.322;22.816;2022-07-06T13:49:30;2.60;;;0.85;;
22922;SDS011;11627;51.322;22.816;2022-07-06T13:51:56;2.22;;;0.98;;
22922;SDS011;11627;51.322;22.816;2022-07-06T13:54:28;1.27;;;0.70;;
22922;SDS011;11627;51.322;22.816;2022-07-06T13:56:55;1.63;;;0.85;;
22922;SDS011;11627;51.322;22.816;2022-07-06T13:59:22;16.85;;;9.25;;
22922;SDS011;11627;51.322;22.816;2022-07-06T14:01:47;8.02;;;5.40;;
22922;SDS011;11627;51.322;22.816;2022-07-06T14:04:13;10.68;;;7.72;;
22922;SDS011;11627;51.322;22.816;2022-07-06T14:06:42;5.57;;;4.15;;
22922;SDS011;11627;51.322;22.816;2022-07-06T14:09:08;2.60;;;1.60;;
22922;SDS011;11627;51.322;22.816;2022-07-06T14:11:35;4.40;;;1.20;;
22922;SDS011;11627;51.322;22.816;2022-07-06T14:14:01;4.82;;;0.93;;
22922;SDS011;11627;51.322;22.816;2022-07-06T14:16:27;2.67;;;0.82;;
22922;SDS011;11627;51.322;22.816;2022-07-06T14:18:53;2.58;;;0.98;;
22922;SDS011;11627;51.322;22.816;2022-07-06T14:21:19;1.77;;;0.90;;
22922;SDS011;11627;51.322;22.816;2022-07-06T14:23:46;1.85;;;0.85;;
22922;SDS011;11627;51.322;22.816;2022-07-06T14:26:14;2.15;;;0.98;;
22922;SDS011;11627;51.322;22.816;2022-07-06T14:28:40;2.45;;;0.95;;
22922;SDS011;11627;51.322;22.816;2022-07-06T14:31:06;2.25;;;0.80;;
22922;SDS011;11627;51.322;22.816;2022-07-06T14:33:32;1.10;;;0.80;;
22922;SDS011;11627;51.322;22.816;2022-07-06T14:35:58;1.48;;;0.68;;
22922;SDS011;11627;51.322;22.816;2022-07-06T14:38:25;3.33;;;0.80;;
22922;SDS011;11627;51.322;22.816;2022-07-06T14:40:52;2.85;;;0.80;;
22922;SDS011;11627;51.322;22.816;2022-07-06T14:43:18;2.20;;;0.90;;
22922;SDS011;11627;51.322;22.816;2022-07-06T14:45:44;1.80;;;1.35;;
22922;SDS011;11627;51.322;22.816;2022-07-06T14:48:11;1.23;;;1.10;;
22922;SDS011;11627;51.322;22.816;2022-07-06T14:50:38;4.63;;;1.10;;
22922;SDS011;11627;51.322;22.816;2022-07-06T14:53:03;1.17;;;1.05;;
22922;SDS011;11627;51.322;22.816;2022-07-06T14:55:30;1.27;;;0.80;;
22922;SDS011;11627;51.322;22.816;2022-07-06T14:57:56;6.53;;;1.52;;
22922;SDS011;11627;51.322;22.816;2022-07-06T15:00:25;2.17;;;1.25;;
22922;SDS011;11627;51.322;22.816;2022-07-06T15:02:52;2.05;;;1.30;;